Time;durP1;ratioP1;P1;durP2;ratioP2;P2;SDS_P1;SDS_P2;PMS_P1;PMS_P2;Temp;Humidity;BMP_temperature;BMP_pressure;BME280_temperature;BME280_humidity;BME280_pressure;Samples;Min_cycle;Max_cycle;Signal;HPM_P1;HPM_P2
2022/04/27 00:01:47;;;;;;;105.40;48.10;;;;;;;3.39;78.40;98854.74;432362;1273;99340;-41
2022/04/27 00:11:59;;;;;;;117.20;55.40;;;;;;;3.35;78.96;98852.77;432482;1273;112595;-44
2022/04/27 00:22:04;;;;;;;107.20;55.70;;;;;;;3.26;78.65;98856.17;432523;1273;109020;-44
2022/04/27 00:32:11;;;;;;;158.20;74.50;;;;;;;3.03;78.28;98861.80;432510;1273;99280;-43
2022/04/27 00:42:22;;;;;;;163.60;81.80;;;;;;;2.99;78.87;98865.59;432456;1273;112404;-45
2022/04/27 00:52:32;;;;;;;155.40;76.60;;;;;;;3.05;78.97;98870.34;432540;1273;108927;-41
2022/04/27 01:02:40;;;;;;;170.10;78.70;;;;;;;3.04;79.16;98868.28;432397;1273;98041;-43
2022/04/27 01:12:46;;;;;;;168.00;79.70;;;;;;;3.10;79.33;98871.90;432382;1272;108837;-43
2022/04/27 01:22:53;;;;;;;146.50;73.80;;;;;;;3.03;79.16;98873.48;432308;1273;98863;-43
2022/04/27 01:33:00;;;;;;;195.20;87.90;;;;;;;2.89;79.25;98878.95;433338;1258;112490;-41
2022/04/27 01:43:05;;;;;;;172.30;85.20;;;;;;;2.63;79.44;98882.13;432999;1270;107829;-44
2022/04/27 02:03:39;;;;;;;166.40;83.50;;;;;;;2.19;79.56;98894.29;432978;1270;112500;-43
2022/04/27 02:13:48;;;;;;;158.50;78.10;;;;;;;1.99;79.57;98897.04;432942;1270;108827;-42
2022/04/27 02:23:56;;;;;;;109.50;58.10;;;;;;;1.83;79.63;98895.20;433132;1270;98048;-43
2022/04/27 02:34:03;;;;;;;101.30;51.10;;;;;;;1.80;80.06;98897.48;433001;1270;107966;-40
2022/04/27 02:44:11;;;;;;;90.10;47.20;;;;;;;1.76;80.02;98896.56;433282;1270;99253;-41
2022/04/27 02:54:19;;;;;;;86.00;45.50;;;;;;;1.75;80.16;98902.42;433276;1270;111414;-44
2022/04/27 03:04:26;;;;;;;89.60;46.40;;;;;;;1.84;80.50;98904.41;433223;1269;108957;-44
2022/04/27 03:14:34;;;;;;;88.70;47.70;;;;;;;1.83;80.39;98907.09;433229;1270;99260;-42
2022/04/27 03:24:41;;;;;;;95.20;44.90;;;;;;;1.83;80.40;98914.98;433300;1269;108828;-43
2022/04/27 03:34:48;;;;;;;100.90;45.80;;;;;;;1.76;80.34;98917.61;433310;1268;98882;-41
2022/04/27 03:44:57;;;;;;;99.20;52.60;;;;;;;1.87;80.61;98931.42;433380;1269;112562;-42
2022/04/27 03:55:04;;;;;;;111.30;58.70;;;;;;;1.91;80.89;98929.60;433266;1269;108745;-43
2022/04/27 04:05:15;;;;;;;106.90;55.90;;;;;;;2.04;80.73;98938.75;433305;1270;98650;-45
2022/04/27 04:15:22;;;;;;;88.50;44.40;;;;;;;2.21;80.50;98943.63;433272;1271;112531;-42
2022/04/27 04:35:55;;;;;;;159.00;77.80;;;;;;;4.66;80.80;98962.66;433214;1270;99155;-42
2022/04/27 04:46:02;;;;;;;134.20;71.90;;;;;;;5.80;80.05;98970.90;433270;1269;112422;-40
2022/04/27 04:56:10;;;;;;;134.20;72.90;;;;;;;6.68;79.90;98969.88;433182;1271;108825;-43
2022/04/27 05:06:17;;;;;;;123.60;67.10;;;;;;;8.33;79.61;98973.46;433373;1270;98946;-41
2022/04/27 05:36:37;;;;;;;80.50;48.20;;;;;;;9.59;78.25;98999.21;433276;1269;112670;-43
2022/04/27 05:46:45;;;;;;;147.90;66.70;;;;;;;10.72;77.92;99011.05;433231;1271;108841;-45
2022/04/27 06:06:58;;;;;;;59.20;36.70;;;;;;;13.16;76.20;99022.27;433359;1271;108607;-44
2022/04/27 06:17:07;;;;;;;49.90;30.40;;;;;;;13.75;74.75;99031.03;433088;1270;311300;-42
2022/04/27 06:27:15;;;;;;;53.80;33.50;;;;;;;13.74;73.18;99045.70;433265;1269;111818;-43
2022/04/27 06:37:22;;;;;;;50.50;34.20;;;;;;;13.94;72.48;99049.80;433199;1269;108773;-42
2022/04/27 06:47:28;;;;;;;44.70;24.90;;;;;;;14.29;71.57;99055.77;433284;1271;98050;-45
2022/04/27 06:57:34;;;;;;;20.90;14.00;;;;;;;14.48;69.07;99064.73;433341;1271;108674;-41
2022/04/27 07:07:41;;;;;;;21.10;14.60;;;;;;;13.58;65.77;99067.05;433392;1270;98019;-43
2022/04/27 07:17:48;;;;;;;28.90;16.60;;;;;;;13.35;64.01;99071.75;433344;1269;112219;-44
2022/04/27 07:27:55;;;;;;;29.60;17.70;;;;;;;13.74;65.58;99082.64;433323;1270;108851;-44
2022/04/27 07:38:02;;;;;;;28.80;17.50;;;;;;;13.94;64.12;99091.11;433294;1269;99372;-41
2022/04/27 07:48:08;;;;;;;23.80;14.80;;;;;;;13.88;62.56;99100.27;433073;1270;108848;-44
2022/04/27 07:58:15;;;;;;;20.90;14.00;;;;;;;13.82;62.60;99107.88;432999;1269;99296;-41
2022/04/27 08:08:21;;;;;;;20.80;12.90;;;;;;;14.22;62.03;99111.05;432964;1271;112515;-42
2022/04/27 08:28:41;;;;;;;18.50;13.00;;;;;;;13.91;59.77;99123.48;432869;1271;99251;-46
2022/04/27 08:38:48;;;;;;;13.80;9.40;;;;;;;14.24;59.25;99122.64;432821;1270;108851;-45
2022/04/27 08:59:02;;;;;;;13.50;7.90;;;;;;;14.59;57.54;99125.98;432933;1271;112540;-43
2022/04/27 09:29:42;;;;;;;7.90;5.80;;;;;;;14.70;55.62;99131.15;432996;1270;108789;-45
2022/04/27 09:50:06;;;;;;;8.90;6.90;;;;;;;14.58;54.05;99129.86;433224;1270;112493;-45
2022/04/27 10:00:19;;;;;;;9.80;7.90;;;;;;;14.61;53.64;99121.24;433058;1270;108927;-45
2022/04/27 10:10:27;;;;;;;10.60;8.60;;;;;;;15.18;52.22;99119.82;433107;1269;99251;-46
2022/04/27 10:20:35;;;;;;;11.30;7.80;;;;;;;15.43;50.80;99113.92;433080;1269;108742;-41
2022/04/27 10:30:45;;;;;;;15.30;8.40;;;;;;;14.84;50.61;99124.41;433073;1271;99111;-42
2022/04/27 10:41:05;;;;;;;11.40;7.70;;;;;;;14.18;51.35;99124.08;433085;1269;112507;-47
2022/04/27 10:51:11;;;;;;;9.70;6.60;;;;;;;13.87;51.63;99126.73;433160;1271;108822;-44
2022/04/27 11:11:21;;;;;;;8.10;5.90;;;;;;;14.03;51.02;99125.42;433080;1269;109270;-43
2022/04/27 11:21:30;;;;;;;6.90;5.40;;;;;;;14.33;50.82;99123.85;433149;1270;97956;-43
2022/04/27 11:31:38;;;;;;;6.80;5.50;;;;;;;14.71;50.24;99128.09;433139;1269;112639;-44
2022/04/27 11:51:52;;;;;;;6.50;5.20;;;;;;;14.57;48.46;99133.55;433193;1270;99251;-40
2022/04/27 12:01:59;;;;;;;6.50;4.90;;;;;;;14.32;48.65;99137.66;433189;1269;107887;-44
2022/04/27 12:12:11;;;;;;;6.40;4.70;;;;;;;14.20;48.31;99133.29;433377;1269;98010;-42
2022/04/27 12:22:19;;;;;;;10.40;5.90;;;;;;;14.38;49.16;99130.05;433178;1270;112371;-41
2022/04/27 12:32:26;;;;;;;6.60;4.70;;;;;;;14.59;50.03;99131.52;433059;1271;107744;-42
2022/04/27 12:52:41;;;;;;;7.60;5.50;;;;;;;15.26;49.62;99114.91;433172;1269;108615;-46
2022/04/27 13:02:49;;;;;;;7.80;4.90;;;;;;;15.25;48.78;99119.48;433328;1269;98040;-40
2022/04/27 13:12:57;;;;;;;10.30;4.80;;;;;;;15.25;48.43;99116.23;433553;1270;112649;-45
2022/04/27 13:23:03;;;;;;;9.50;5.60;;;;;;;15.32;47.48;99101.19;433470;1270;107931;-41
2022/04/27 13:33:11;;;;;;;8.40;4.80;;;;;;;15.59;46.46;99101.50;433440;1270;99246;-44
2022/04/27 13:43:17;;;;;;;7.70;4.60;;;;;;;15.43;45.31;99102.00;433504;1269;108694;-44
2022/04/27 13:53:25;;;;;;;10.10;3.90;;;;;;;14.90;43.14;99110.19;433476;1269;98866;-40
2022/04/27 14:03:32;;;;;;;3.80;2.60;;;;;;;14.50;42.22;99105.08;433418;1269;112695;-45
2022/04/27 14:13:41;;;;;;;7.20;2.70;;;;;;;14.43;42.31;99101.29;433449;1269;108733;-41
2022/04/27 14:23:48;;;;;;;7.50;4.20;;;;;;;14.77;43.46;99107.55;433470;1270;99250;-46
2022/04/27 14:33:56;;;;;;;6.30;4.40;;;;;;;14.58;41.83;99113.48;433391;1268;108707;-42
2022/04/27 14:44:03;;;;;;;7.60;4.70;;;;;;;13.82;42.83;99117.29;433425;1269;99271;-45
2022/04/27 14:54:10;;;;;;;6.30;4.70;;;;;;;13.43;44.10;99123.25;433499;1269;112395;-45
2022/04/27 15:04:18;;;;;;;8.10;4.60;;;;;;;13.32;45.29;99120.49;433493;1270;108809;-44
2022/04/27 15:14:25;;;;;;;7.50;5.10;;;;;;;13.31;46.21;99118.20;433539;1268;98635;-47
2022/04/27 15:24:33;;;;;;;9.10;5.80;;;;;;;13.36;46.95;99121.89;433463;1269;107983;-42
2022/04/27 15:34:40;;;;;;;10.50;6.80;;;;;;;13.40;47.08;99129.03;433606;1269;99283;-40
2022/04/27 15:44:48;;;;;;;9.80;5.70;;;;;;;13.55;46.99;99131.02;433557;1269;111457;-45
2022/04/27 15:54:54;;;;;;;11.20;7.30;;;;;;;13.60;46.59;99134.27;433546;1270;107571;-43
2022/04/27 16:05:03;;;;;;;14.40;7.20;;;;;;;13.56;46.67;99133.82;433719;1269;99286;-45
2022/04/27 16:15:12;;;;;;;7.70;5.80;;;;;;;13.55;46.44;99135.55;433616;1269;109369;-45
2022/04/27 16:25:19;;;;;;;13.00;7.50;;;;;;;13.61;47.19;99138.54;433651;1269;99260;-45
2022/04/27 16:35:29;;;;;;;10.80;8.00;;;;;;;13.59;46.89;99142.01;433557;1269;113162;-44
2022/04/27 16:45:36;;;;;;;11.80;7.50;;;;;;;13.42;46.74;99149.95;433622;1270;107272;-42
2022/04/27 16:55:43;;;;;;;10.00;7.20;;;;;;;13.31;47.01;99162.04;433660;1270;99280;-42
2022/04/27 17:05:51;;;;;;;11.10;7.50;;;;;;;13.17;47.40;99168.48;433567;1270;108106;-41
2022/04/27 17:15:58;;;;;;;12.90;8.20;;;;;;;13.03;47.97;99176.77;433372;1269;99272;-42
2022/04/27 17:36:32;;;;;;;21.80;11.00;;;;;;;12.66;49.13;99202.56;433565;1268;108848;-40
2022/04/27 17:46:40;;;;;;;18.70;10.60;;;;;;;12.39;49.66;99208.65;433457;1269;97968;-41
2022/04/27 17:56:47;;;;;;;21.30;12.20;;;;;;;12.12;50.36;99223.85;433475;1270;107787;-43
2022/04/27 18:06:54;;;;;;;19.80;9.10;;;;;;;11.82;51.13;99238.91;433520;1269;99353;-44
2022/04/27 18:17:02;;;;;;;16.90;11.10;;;;;;;11.41;51.84;99250.11;432827;1270;1047288;-46
2022/04/27 18:27:10;;;;;;;22.70;13.20;;;;;;;10.97;52.84;99257.98;433362;1269;108517;-45
2022/04/27 18:37:18;;;;;;;31.30;13.90;;;;;;;10.54;53.53;99267.78;433499;1270;98854;-45
2022/04/27 18:57:51;;;;;;;27.40;16.80;;;;;;;9.73;55.06;99295.29;433557;1268;99255;-44
2022/04/27 19:07:57;;;;;;;45.50;21.20;;;;;;;9.34;55.72;99303.13;433430;1269;112339;-43
2022/04/27 19:18:03;;;;;;;42.70;20.40;;;;;;;9.07;56.47;99305.54;433424;1269;107760;-42
2022/04/27 19:28:12;;;;;;;56.80;25.60;;;;;;;8.89;56.93;99305.13;433383;1270;99289;-42
2022/04/27 19:48:26;;;;;;;93.20;50.50;;;;;;;8.71;58.32;99312.20;433332;1269;108022;-44
2022/04/27 19:58:34;;;;;;;86.30;48.40;;;;;;;8.68;58.97;99321.93;433466;1270;99253;-43
2022/04/27 20:08:41;;;;;;;87.10;47.10;;;;;;;8.51;59.54;99324.86;433346;1268;108820;-45
2022/04/27 20:18:49;;;;;;;91.30;47.10;;;;;;;8.25;60.01;99325.44;433283;1269;101482;-41
2022/04/27 20:28:57;;;;;;;95.50;47.90;;;;;;;8.18;60.59;99326.88;433188;1269;111606;-43
2022/04/27 20:39:04;;;;;;;93.10;49.00;;;;;;;8.15;61.00;99335.91;433201;1269;109300;-42
2022/04/27 20:49:13;;;;;;;123.50;62.30;;;;;;;8.05;61.48;99343.08;433359;1270;99269;-41
2022/04/27 21:09:27;;;;;;;121.80;59.60;;;;;;;7.40;61.73;99360.42;433427;1269;98871;-45
2022/04/27 21:19:34;;;;;;;112.10;58.20;;;;;;;7.11;62.38;99365.09;433381;1269;112713;-41
2022/04/27 21:29:43;;;;;;;91.40;48.60;;;;;;;6.94;62.85;99372.98;433243;1269;108841;-45
2022/04/27 21:39:51;;;;;;;93.30;50.70;;;;;;;6.75;63.15;99376.74;433229;1269;99356;-44
2022/04/27 21:49:58;;;;;;;83.00;45.00;;;;;;;6.61;63.40;99387.00;433231;1269;108194;-45
2022/04/27 22:00:07;;;;;;;108.40;56.80;;;;;;;6.38;63.80;99383.58;433248;1270;99378;-43
2022/04/27 22:10:15;;;;;;;118.90;63.80;;;;;;;6.11;64.16;99385.79;433339;1271;112513;-46
2022/04/27 22:20:21;;;;;;;121.00;60.70;;;;;;;5.79;64.46;99390.70;433451;1270;108725;-42
2022/04/27 22:30:29;;;;;;;83.10;44.70;;;;;;;5.58;64.97;99389.48;433364;1270;97962;-46
2022/04/27 22:40:37;;;;;;;73.50;42.00;;;;;;;5.52;65.20;99387.95;433241;1270;110129;-44
2022/04/27 22:50:45;;;;;;;81.40;39.00;;;;;;;5.34;65.08;99386.34;433272;1270;98017;-42
2022/04/27 23:01:07;;;;;;;76.50;39.10;;;;;;;5.18;65.46;99382.96;433180;1270;112461;-47
2022/04/27 23:11:14;;;;;;;88.10;48.00;;;;;;;5.09;65.80;99388.21;433197;1269;108731;-42
2022/04/27 23:21:23;;;;;;;72.70;40.10;;;;;;;4.97;66.12;99386.64;433310;1270;98079;-44
2022/04/27 23:31:29;;;;;;;;;;;;;;;4.73;66.23;99388.33;433392;1268;112441;-42
2022/04/27 23:41:37;;;;;;;59.00;32.20;;;;;;;4.51;66.55;99382.41;433154;1271;108791;-41
2022/04/27 23:51:44;;;;;;;47.30;27.20;;;;;;;4.38;66.69;99377.63;433134;1270;99285;-44
